Time;durP1;ratioP1;P1;durP2;ratioP2;P2;SDS_P1;SDS_P2;PMS_P1;PMS_P2;Temp;Humidity;BMP_temperature;BMP_pressure;BME280_temperature;BME280_humidity;BME280_pressure;Samples;Min_cycle;Max_cycle;Signal;HPM_P1;HPM_P2
2021/11/26 00:01:37;;;;;;;25;12.7;;;;;;;;;;;;;
2021/11/26 00:04:00;;;;;;;25.9;12.3;;;;;;;;;;;;;
2021/11/26 00:06:26;;;;;;;23.9;12.4;;;;;;;;;;;;;
2021/11/26 00:08:51;;;;;;;25.6;13.6;;;;;;;;;;;;;
2021/11/26 00:11:17;;;;;;;21.4;12.6;;;;;;;;;;;;;
2021/11/26 00:14:09;;;;;;;25.4;12.5;;;;;;;;;;;;;
2021/11/26 00:16:34;;;;;;;23.1;12.2;;;;;;;;;;;;;
2021/11/26 00:18:58;;;;;;;22.4;12.5;;;;;;;;;;;;;
2021/11/26 00:21:19;;;;;;;22.8;11.8;;;;;;;;;;;;;
2021/11/26 00:23:44;;;;;;;22.7;11.6;;;;;;;;;;;;;
2021/11/26 00:26:09;;;;;;;22.6;12.5;;;;;;;;;;;;;
2021/11/26 00:28:34;;;;;;;21.9;11.7;;;;;;;;;;;;;
2021/11/26 00:30:59;;;;;;;23.1;12.8;;;;;;;;;;;;;
2021/11/26 00:33:25;;;;;;;22.3;12.6;;;;;;;;;;;;;
2021/11/26 00:36:03;;;;;;;21.4;12;;;;;;;;;;;;;
2021/11/26 00:38:29;;;;;;;21.7;11.7;;;;;;;;;;;;;
2021/11/26 00:40:54;;;;;;;20.1;10.9;;;;;;;;;;;;;
2021/11/26 00:43:19;;;;;;;20.3;11.1;;;;;;;;;;;;;
2021/11/26 00:45:44;;;;;;;17.9;10.7;;;;;;;;;;;;;
2021/11/26 00:48:11;;;;;;;20.4;11.3;;;;;;;;;;;;;
2021/11/26 00:50:36;;;;;;;20.9;11.8;;;;;;;;;;;;;
2021/11/26 00:53:02;;;;;;;22.1;11.5;;;;;;;;;;;;;
2021/11/26 00:55:28;;;;;;;20.9;11.3;;;;;;;;;;;;;
2021/11/26 00:57:54;;;;;;;18.9;10.8;;;;;;;;;;;;;
2021/11/26 01:00:19;;;;;;;22;10.8;;;;;;;;;;;;;
2021/11/26 01:02:46;;;;;;;22.2;11.2;;;;;;;;;;;;;
2021/11/26 01:05:11;;;;;;;22.5;10.8;;;;;;;;;;;;;
2021/11/26 01:07:36;;;;;;;21.9;11.8;;;;;;;;;;;;;
2021/11/26 01:10:01;;;;;;;21.5;11.9;;;;;;;;;;;;;
2021/11/26 01:12:27;;;;;;;21.2;11.1;;;;;;;;;;;;;
2021/11/26 01:14:52;;;;;;;20.3;11.3;;;;;;;;;;;;;
2021/11/26 01:17:18;;;;;;;20.3;10.8;;;;;;;;;;;;;
2021/11/26 01:19:43;;;;;;;20.6;11.1;;;;;;;;;;;;;
2021/11/26 01:22:09;;;;;;;19.9;10.6;;;;;;;;;;;;;
2021/11/26 01:24:34;;;;;;;18;10.3;;;;;;;;;;;;;
2021/11/26 01:27:04;;;;;;;19.2;10.7;;;;;;;;;;;;;
2021/11/26 01:29:25;;;;;;;21;11.5;;;;;;;;;;;;;
2021/11/26 01:31:52;;;;;;;20.7;11;;;;;;;;;;;;;
2021/11/26 01:34:17;;;;;;;18.4;10.8;;;;;;;;;;;;;
2021/11/26 01:36:46;;;;;;;21.5;11.8;;;;;;;;;;;;;
2021/11/26 01:39:08;;;;;;;20.2;10.8;;;;;;;;;;;;;
2021/11/26 01:41:35;;;;;;;21;11.5;;;;;;;;;;;;;
2021/11/26 01:43:58;;;;;;;21;11.3;;;;;;;;;;;;;
2021/11/26 01:46:25;;;;;;;19.6;11.1;;;;;;;;;;;;;
2021/11/26 01:48:50;;;;;;;24;11.6;;;;;;;;;;;;;
2021/11/26 01:51:16;;;;;;;23.2;11.8;;;;;;;;;;;;;
2021/11/26 01:53:41;;;;;;;24.1;11.6;;;;;;;;;;;;;
2021/11/26 01:56:07;;;;;;;25.3;11.4;;;;;;;;;;;;;
2021/11/26 01:58:32;;;;;;;25.2;11.5;;;;;;;;;;;;;
2021/11/26 02:01:00;;;;;;;22.7;11.6;;;;;;;;;;;;;
2021/11/26 02:03:24;;;;;;;23;11.4;;;;;;;;;;;;;
2021/11/26 02:05:50;;;;;;;22.8;11.3;;;;;;;;;;;;;
2021/11/26 02:08:15;;;;;;;25.4;12.1;;;;;;;;;;;;;
2021/11/26 02:10:41;;;;;;;23.5;12.1;;;;;;;;;;;;;
2021/11/26 02:13:06;;;;;;;26.3;12.1;;;;;;;;;;;;;
2021/11/26 02:15:40;;;;;;;23.5;11.5;;;;;;;;;;;;;
2021/11/26 02:18:00;;;;;;;26.4;12;;;;;;;;;;;;;
2021/11/26 02:20:25;;;;;;;22.6;11.1;;;;;;;;;;;;;
2021/11/26 02:22:50;;;;;;;21.8;11.4;;;;;;;;;;;;;
2021/11/26 02:25:17;;;;;;;27.4;11.8;;;;;;;;;;;;;
2021/11/26 02:27:42;;;;;;;27.7;11.4;;;;;;;;;;;;;
2021/11/26 02:30:13;;;;;;;24.7;11.7;;;;;;;;;;;;;
2021/11/26 02:32:33;;;;;;;24.3;11.4;;;;;;;;;;;;;
2021/11/26 02:34:58;;;;;;;24;11.7;;;;;;;;;;;;;
2021/11/26 02:37:24;;;;;;;26.1;11.9;;;;;;;;;;;;;
2021/11/26 02:39:49;;;;;;;24;11.2;;;;;;;;;;;;;
2021/11/26 03:51:53;;;;;;;23.8;11.3;;;;;;;;;;;;;
2021/11/26 03:54:18;;;;;;;21.4;10.2;;;;;;;;;;;;;
2021/11/26 03:56:44;;;;;;;19.9;9.6;;;;;;;;;;;;;
2021/11/26 03:59:09;;;;;;;21.7;10.4;;;;;;;;;;;;;
2021/11/26 04:02:32;;;;;;;22.7;10.3;;;;;;;0.76;97.2334;924.1015;;;;
2021/11/26 04:05:07;;;;;;;18.7;9.5;;;;;;;1.01;97.37891;924.0463;;;;
2021/11/26 04:07:32;;;;;;;17.4;9.2;;;;;;;1.03;96.90527;924.0695;;;;
2021/11/26 04:10:03;;;;;;;20.3;10.2;;;;;;;0.98;96.64746;924.1473;;;;
2021/11/26 04:12:29;;;;;;;20.9;10.2;;;;;;;1.06;96.25195;924.0912;;;;
2021/11/26 04:15:16;;;;;;;19.4;9.5;;;;;;;1.15;96.07422;923.9969;;;;
2021/11/26 04:17:44;;;;;;;15.7;8.5;;;;;;;1.25;95.52246;924.0532;;;;
2021/11/26 04:20:07;;;;;;;18.8;9.2;;;;;;;1.29;95.05469;923.9688;;;;
2021/11/26 04:35:58;;;;;;;18.2;9.4;;;;;;;1.19;95.09668;923.8629;;;;
2021/11/26 04:38:27;;;;;;;19.7;9.3;;;;;;;1.28;94.77344;923.8713;;;;
2021/11/26 04:40:52;;;;;;;18.3;9.1;;;;;;;1.41;94.16406;923.8373;;;;
2021/11/26 04:43:20;;;;;;;19;8.9;;;;;;;1.44;93.93555;923.8245;;;;
2021/11/26 04:45:47;;;;;;;16.8;9.5;;;;;;;1.29;94.22754;923.8339;;;;
2021/11/26 04:51:58;;;;;;;17.5;9.2;;;;;;;1.55;93.09668;923.7207;;;;
2021/11/26 04:55:22;;;;;;;21.7;9.6;;;;;;;1.35;93.3457;923.7386;;;;
2021/11/26 05:00:25;;;;;;;17.2;9;;;;;;;1.43;92.65723;923.6376;;;;
2021/11/26 05:02:52;;;;;;;17;8.9;;;;;;;1.48;92.88379;923.6372;;;;
2021/11/26 05:05:17;;;;;;;18.6;9.4;;;;;;;1.43;93.64063;923.622;;;;
2021/11/26 05:07:45;;;;;;;18.1;9.8;;;;;;;1.5;93.58984;923.5935;;;;
2021/11/26 05:10:10;;;;;;;19.4;9.6;;;;;;;1.41;93.61621;923.6131;;;;
2021/11/26 05:12:41;;;;;;;18.5;10;;;;;;;1.48;93.27246;923.5335;;;;
2021/11/26 05:15:03;;;;;;;20.3;9.1;;;;;;;1.61;92.82031;923.5433;;;;
2021/11/26 05:17:38;;;;;;;15.8;9;;;;;;;1.62;92.26465;923.5687;;;;
2021/11/26 05:20:12;;;;;;;15.7;8.7;;;;;;;1.61;92.23145;923.5552;;;;
2021/11/26 05:22:38;;;;;;;17.5;8.4;;;;;;;1.61;92.59863;923.5544;;;;
2021/11/26 05:28:36;;;;;;;14.7;8.3;;;;;;;1.59;92.24609;923.4188;;;;
2021/11/26 05:37:03;;;;;;;14.2;8.8;;;;;;;1.73;91.25977;923.3886;;;;
2021/11/26 05:39:28;;;;;;;17.4;9.2;;;;;;;1.8;91.3418;923.3479;;;;
2021/11/26 05:41:58;;;;;;;15.3;8.3;;;;;;;1.91;91.27344;923.3354;;;;
2021/11/26 05:44:28;;;;;;;13.7;8.1;;;;;;;1.9;91.00488;923.2169;;;;
2021/11/26 05:46:53;;;;;;;14.5;8.6;;;;;;;1.76;91.66992;923.2739;;;;
2021/11/26 05:50:01;;;;;;;19.1;10.4;;;;;;;1.81;91.90527;923.3261;;;;
2021/11/26 05:52:26;;;;;;;15;8.5;;;;;;;1.97;91.22266;923.2629;;;;
2021/11/26 05:54:59;;;;;;;13.5;8;;;;;;;1.92;91.1543;923.2707;;;;
2021/11/26 06:02:52;;;;;;;15.2;8.1;;;;;;;1.47;92.67871;923.2488;;;;
2021/11/26 06:05:23;;;;;;;15.3;8.4;;;;;;;1.44;93.20898;923.2325;;;;
2021/11/26 06:07:48;;;;;;;17.5;8.5;;;;;;;1.48;93.23926;923.2403;;;;
2021/11/26 06:20:27;;;;;;;22.6;10;;;;;;;0.65;97.55273;923.2242;;;;
2021/11/26 06:22:52;;;;;;;19.1;10.1;;;;;;;0.69;97.97559;923.1795;;;;
2021/11/26 06:25:22;;;;;;;21.4;10.3;;;;;;;0.6;97.91016;923.1526;;;;
2021/11/26 06:27:50;;;;;;;20.6;9.8;;;;;;;0.5;98.58984;923.1672;;;;
2021/11/26 06:30:15;;;;;;;19.6;10.6;;;;;;;0.49;98.75293;923.1373;;;;
2021/11/26 06:33:53;;;;;;;22.4;10.5;;;;;;;0.66;98.5918;923.1342;;;;
2021/11/26 06:36:52;;;;;;;19.2;10.2;;;;;;;0.78;98.1416;923.0795;;;;
2021/11/26 06:39:16;;;;;;;21.1;10.9;;;;;;;0.81;97.93555;923.0327;;;;
2021/11/26 06:41:43;;;;;;;20.8;10.4;;;;;;;0.96;97.37793;923.0843;;;;
2021/11/26 06:44:08;;;;;;;19.2;10;;;;;;;1.05;96.68555;923.0989;;;;
2021/11/26 06:47:18;;;;;;;20.2;10.2;;;;;;;1.04;96.49219;923.109;;;;
2021/11/26 06:49:43;;;;;;;20;10.2;;;;;;;1.17;95.65332;923.0858;;;;
2021/11/26 06:52:13;;;;;;;19.2;9.6;;;;;;;1.08;95.47461;923.1387;;;;
2021/11/26 06:54:38;;;;;;;20.3;10.3;;;;;;;1.12;95.76465;923.0605;;;;
2021/11/26 06:57:03;;;;;;;19.5;10.1;;;;;;;1.12;95.09375;923.0965;;;;
2021/11/26 06:59:29;;;;;;;16.9;9;;;;;;;1.09;95.19727;923.0856;;;;
2021/11/26 07:01:55;;;;;;;21;10.3;;;;;;;1.04;95.75684;923.0158;;;;
2021/11/26 07:04:22;;;;;;;19.4;9.3;;;;;;;1.18;95.10645;923.0083;;;;
2021/11/26 07:06:47;;;;;;;21.7;10.6;;;;;;;1.16;94.59961;923.0323;;;;
2021/11/26 07:09:13;;;;;;;19;9.6;;;;;;;1.07;94.87012;923.0053;;;;
2021/11/26 07:11:38;;;;;;;19;10;;;;;;;1.09;95.08594;922.9281;;;;
2021/11/26 07:14:06;;;;;;;19.6;10.3;;;;;;;1.11;94.86621;922.8658;;;;
2021/11/26 07:16:32;;;;;;;21.4;9.7;;;;;;;1.15;94.91016;922.9709;;;;
2021/11/26 07:19:02;;;;;;;19.9;10.2;;;;;;;1.04;95.15234;922.946;;;;
2021/11/26 07:21:32;;;;;;;19.7;10.3;;;;;;;1.09;95.21777;922.9783;;;;
2021/11/26 07:24:02;;;;;;;20.1;9.7;;;;;;;1.18;94.83984;922.9543;;;;
2021/11/26 07:26:27;;;;;;;21;10.2;;;;;;;1.26;94.66602;922.9153;;;;
2021/11/26 07:28:55;;;;;;;18.4;10;;;;;;;1.24;94.89746;922.918;;;;
2021/11/26 07:31:20;;;;;;;20.2;10.1;;;;;;;1.1;94.87793;922.8915;;;;
2021/11/26 07:33:47;;;;;;;19.2;9.7;;;;;;;1.16;94.7334;922.9366;;;;
2021/11/26 07:36:12;;;;;;;17.9;9.8;;;;;;;1.32;94.17578;922.9288;;;;
2021/11/26 07:38:39;;;;;;;20.7;10.5;;;;;;;1.11;94.45313;922.9504;;;;
2021/11/26 07:41:04;;;;;;;18.8;9.2;;;;;;;0.99;95.53223;922.9777;;;;
2021/11/26 07:43:30;;;;;;;21.2;10.6;;;;;;;1.05;95.39063;922.9039;;;;
2021/11/26 07:45:56;;;;;;;18.8;10.1;;;;;;;1.29;94.95215;922.8876;;;;
2021/11/26 07:48:23;;;;;;;22.5;10.5;;;;;;;1.49;93.99219;922.9056;;;;
2021/11/26 07:50:48;;;;;;;20.3;10.4;;;;;;;1.51;93.67188;922.903;;;;
2021/11/26 07:53:14;;;;;;;18.9;9.5;;;;;;;1.41;93.66113;922.9247;;;;
2021/11/26 07:55:40;;;;;;;21.3;10.3;;;;;;;1.42;93.41504;922.8118;;;;
2021/11/26 07:58:08;;;;;;;18.1;9.4;;;;;;;1.67;92.83398;922.887;;;;
2021/11/26 08:00:32;;;;;;;19.4;9.4;;;;;;;1.74;92.20117;922.8483;;;;
2021/11/26 08:03:01;;;;;;;18.2;9.6;;;;;;;1.66;91.64648;922.8642;;;;
2021/11/26 08:06:15;;;;;;;19.6;9.5;;;;;;;1.61;91.91797;922.7928;;;;
2021/11/26 08:08:44;;;;;;;17.6;9.1;;;;;;;1.58;92.47852;922.7888;;;;
2021/11/26 08:11:09;;;;;;;19.3;10;;;;;;;1.59;91.86719;922.7263;;;;
2021/11/26 08:13:38;;;;;;;17.2;9;;;;;;;1.78;91.68262;922.6858;;;;
2021/11/26 08:16:11;;;;;;;20.5;10.2;;;;;;;1.82;91.32324;922.6114;;;;
2021/11/26 08:18:39;;;;;;;19;10.4;;;;;;;1.66;90.79883;922.6093;;;;
2021/11/26 08:41:00;;;;;;;16.9;9;;;;;;;1.92;90.22559;922.3391;;;;
2021/11/26 08:43:26;;;;;;;15.9;8.4;;;;;;;2.06;89.97461;922.3541;;;;
2021/11/26 08:45:51;;;;;;;18.3;9.3;;;;;;;2.1;89.36914;922.3186;;;;
2021/11/26 08:48:19;;;;;;;20;10.1;;;;;;;2.18;88.84863;922.1675;;;;
2021/11/26 08:50:45;;;;;;;17.3;9;;;;;;;1.93;89.18945;922.2899;;;;
2021/11/26 08:53:11;;;;;;;19.2;10;;;;;;;1.94;89.51563;922.3011;;;;
2021/11/26 08:55:37;;;;;;;17.3;9.4;;;;;;;2.04;89.34375;922.3027;;;;
2021/11/26 08:58:04;;;;;;;18.6;9.5;;;;;;;2.05;89.39258;922.296;;;;
2021/11/26 09:00:30;;;;;;;15.4;8.9;;;;;;;2.15;89.02148;922.3562;;;;
2021/11/26 09:02:57;;;;;;;17.8;9.7;;;;;;;2.24;88.94922;922.2888;;;;
2021/11/26 09:05:22;;;;;;;18.5;9.2;;;;;;;2.07;89.23828;922.2906;;;;
2021/11/26 09:07:50;;;;;;;15.9;8.9;;;;;;;2.2;88.78516;922.2823;;;;
2021/11/26 09:10:15;;;;;;;16.2;8.4;;;;;;;2.23;88.33301;922.2698;;;;
2021/11/26 09:12:46;;;;;;;14.1;8.7;;;;;;;2.11;88.36328;922.2881;;;;
2021/11/26 09:18:54;;;;;;;17.1;9.2;;;;;;;2.23;87.95117;922.258;;;;
2021/11/26 09:21:24;;;;;;;16.5;8.5;;;;;;;2.15;88.27148;922.2729;;;;
2021/11/26 09:27:26;;;;;;;18.2;9.4;;;;;;;2.22;88.55371;922.2272;;;;
2021/11/26 09:29:55;;;;;;;18;9.3;;;;;;;2.13;88.59082;922.1408;;;;
2021/11/26 09:32:20;;;;;;;15.7;8.7;;;;;;;2.33;87.99609;922.173;;;;
2021/11/26 09:34:48;;;;;;;15.8;8.7;;;;;;;2.12;88.05176;922.0928;;;;
2021/11/26 09:37:12;;;;;;;15.6;8.6;;;;;;;2.07;88.35352;922.019;;;;
2021/11/26 09:39:40;;;;;;;17;9.4;;;;;;;1.91;89.65332;922.0597;;;;
2021/11/26 09:42:05;;;;;;;16.4;8.9;;;;;;;1.75;89.81055;921.9832;;;;
2021/11/26 09:44:34;;;;;;;17;9;;;;;;;2.05;89.63672;922.0046;;;;
2021/11/26 09:46:58;;;;;;;17.2;9.3;;;;;;;2.2;88.87695;921.9568;;;;
2021/11/26 09:49:26;;;;;;;16;8.6;;;;;;;2.45;88.09863;921.9691;;;;
2021/11/26 09:51:51;;;;;;;14.8;8.5;;;;;;;2.43;87.47852;921.8784;;;;
2021/11/26 09:54:17;;;;;;;16.1;8.4;;;;;;;2.46;87.4502;921.9009;;;;
2021/11/26 09:56:43;;;;;;;15;8.6;;;;;;;2.53;86.96094;921.8783;;;;
2021/11/26 09:59:11;;;;;;;16.4;8.7;;;;;;;2.66;86.9082;921.891;;;;
2021/11/26 10:01:37;;;;;;;15.6;8.3;;;;;;;2.58;87.03906;921.8231;;;;
2021/11/26 10:05:16;;;;;;;14.7;8.2;;;;;;;2.71;86.21191;921.7863;;;;
2021/11/26 10:07:44;;;;;;;16.1;8.4;;;;;;;2.55;86.05664;921.7473;;;;
2021/11/26 10:10:15;;;;;;;16.5;8.4;;;;;;;2.51;87.36035;921.6926;;;;
2021/11/26 10:12:44;;;;;;;15.6;8.1;;;;;;;2.19;86.94629;921.6707;;;;
2021/11/26 10:15:17;;;;;;;15.7;8.7;;;;;;;2.29;87.62793;921.5779;;;;
2021/11/26 10:17:43;;;;;;;14;7.9;;;;;;;2.27;87.52344;921.5063;;;;
2021/11/26 10:23:35;;;;;;;14.7;8;;;;;;;2.66;86.26953;921.4464;;;;
2021/11/26 10:26:09;;;;;;;14.1;7.4;;;;;;;2.65;85.94238;921.308;;;;
2021/11/26 10:28:37;;;;;;;13.2;7.7;;;;;;;2.82;85.39453;921.3549;;;;
2021/11/26 10:31:05;;;;;;;11.2;7.1;;;;;;;2.86;84.63867;921.3663;;;;
2021/11/26 10:33:35;;;;;;;11.2;6.8;;;;;;;2.98;83.69922;921.2418;;;;
2021/11/26 10:36:06;;;;;;;14.2;7.8;;;;;;;2.67;84.95996;921.2289;;;;
2021/11/26 10:38:35;;;;;;;12.6;7.1;;;;;;;2.63;85.37695;921.1867;;;;
2021/11/26 10:41:08;;;;;;;14.4;7.4;;;;;;;2.59;85.89648;921.0823;;;;
2021/11/26 10:43:38;;;;;;;13.4;8.1;;;;;;;2.47;85.66895;921.077;;;;
2021/11/26 10:51:09;;;;;;;12.4;7.2;;;;;;;2.95;85.19531;921.0387;;;;
2021/11/26 10:58:33;;;;;;;10.9;6.9;;;;;;;3;83.86035;920.9818;;;;
2021/11/26 11:00:44;;;;;;;12.3;6.9;;;;;;;3.01;84.08789;920.9106;;;;
2021/11/26 11:03:09;;;;;;;14.3;8.2;;;;;;;3.02;84.00977;920.851;;;;
2021/11/26 11:05:40;;;;;;;12.6;7.3;;;;;;;3.04;84.14941;920.8292;;;;
2021/11/26 11:08:12;;;;;;;14.5;8.1;;;;;;;2.92;84.43848;920.7539;;;;
2021/11/26 11:10:44;;;;;;;12.7;7.1;;;;;;;2.74;85.61328;920.7283;;;;
2021/11/26 11:13:37;;;;;;;13.3;7.6;;;;;;;2.65;85.25879;920.6842;;;;
2021/11/26 11:16:07;;;;;;;12.1;7.1;;;;;;;2.77;85.11426;920.6429;;;;
2021/11/26 11:18:40;;;;;;;14;7.8;;;;;;;2.74;85.55762;920.6041;;;;
2021/11/26 11:21:09;;;;;;;12.3;7.1;;;;;;;2.89;85.08398;920.5005;;;;
2021/11/26 11:23:34;;;;;;;14.3;7.9;;;;;;;2.67;86.09375;920.572;;;;
2021/11/26 11:29:05;;;;;;;14.7;7.7;;;;;;;2.67;86.41699;920.4942;;;;
2021/11/26 11:31:35;;;;;;;17.2;8.1;;;;;;;2.7;86.4248;920.4529;;;;
2021/11/26 11:34:37;;;;;;;13.3;7.7;;;;;;;2.8;85.79297;920.3336;;;;
2021/11/26 11:37:20;;;;;;;14.6;8;;;;;;;2.89;85.66699;920.3339;;;;
2021/11/26 11:39:46;;;;;;;14.1;8;;;;;;;3.08;84.95117;920.2383;;;;
2021/11/26 11:42:51;;;;;;;13.5;7.5;;;;;;;3.26;84.60742;920.2179;;;;
2021/11/26 11:47:49;;;;;;;12.5;7.6;;;;;;;3.41;84.17383;920.1091;;;;
2021/11/26 11:50:18;;;;;;;12.8;7.6;;;;;;;3.16;84.67578;920.1248;;;;
2021/11/26 11:52:42;;;;;;;11.6;6.7;;;;;;;3.53;83.51367;920.0327;;;;
2021/11/26 11:55:13;;;;;;;11.9;7.2;;;;;;;3.86;82.51172;919.9822;;;;
2021/11/26 11:57:44;;;;;;;11.5;6.9;;;;;;;4.04;81.15234;919.9683;;;;
2021/11/26 12:00:16;;;;;;;10.9;6.8;;;;;;;4.03;79.42969;919.9274;;;;
2021/11/26 12:02:42;;;;;;;9.8;6.3;;;;;;;4.18;79.79395;919.8373;;;;
2021/11/26 12:05:07;;;;;;;10.2;6.5;;;;;;;4.25;78.69336;919.7583;;;;
2021/11/26 12:07:32;;;;;;;10.1;6.6;;;;;;;4.27;78.62012;919.7269;;;;
2021/11/26 12:09:57;;;;;;;10.7;6.5;;;;;;;4.3;78.44531;919.697;;;;
2021/11/26 12:12:23;;;;;;;10.8;6.7;;;;;;;4.32;78.63965;919.7191;;;;
2021/11/26 12:14:47;;;;;;;12.9;6.7;;;;;;;4.36;77.65625;919.6545;;;;
2021/11/26 12:17:26;;;;;;;10.3;6.2;;;;;;;4.16;79.24121;919.6356;;;;
2021/11/26 12:19:54;;;;;;;10.9;6.7;;;;;;;4.02;78.18945;919.5927;;;;
2021/11/26 12:22:22;;;;;;;10.8;6.6;;;;;;;3.96;80.63086;919.5828;;;;
2021/11/26 12:24:56;;;;;;;12.4;7;;;;;;;3.95;80.59668;919.467;;;;
2021/11/26 12:27:19;;;;;;;10.9;6.2;;;;;;;3.73;80.64453;919.517;;;;
2021/11/26 12:29:50;;;;;;;12.2;6.7;;;;;;;3.65;80.87598;919.5175;;;;
2021/11/26 12:32:14;;;;;;;11.5;7;;;;;;;3.38;81.93652;919.5478;;;;
2021/11/26 12:34:38;;;;;;;11.9;6.9;;;;;;;3.24;82.89746;919.5147;;;;
2021/11/26 12:37:03;;;;;;;11.9;7.1;;;;;;;3.05;83.23145;919.5086;;;;
2021/11/26 12:39:30;;;;;;;12.2;7.6;;;;;;;3.09;83.99023;919.508;;;;
2021/11/26 12:41:55;;;;;;;11.5;6.8;;;;;;;2.79;85.62207;919.4771;;;;
2021/11/26 12:44:24;;;;;;;11.8;7.5;;;;;;;2.87;86.17676;919.4866;;;;
2021/11/26 12:46:55;;;;;;;13.4;7.3;;;;;;;3.02;85.97266;919.4533;;;;
2021/11/26 12:51:02;;;;;;;13;7.4;;;;;;;2.88;86.39355;919.408;;;;
2021/11/26 12:54:47;;;;;;;12.5;7.9;;;;;;;2.74;86.57715;919.4381;;;;
2021/11/26 12:57:13;;;;;;;13.2;7.8;;;;;;;2.68;86.39844;919.3614;;;;
2021/11/26 12:59:39;;;;;;;14.3;8.5;;;;;;;2.6;86.7832;919.3024;;;;
2021/11/26 13:02:04;;;;;;;14.6;8.3;;;;;;;2.59;87.53223;919.2457;;;;
2021/11/26 13:04:33;;;;;;;14.7;8.5;;;;;;;2.6;86.50293;919.2639;;;;
2021/11/26 13:06:58;;;;;;;14.1;8.2;;;;;;;2.79;86.67676;919.3331;;;;
2021/11/26 13:09:23;;;;;;;15.8;8.4;;;;;;;2.68;86.10645;919.3214;;;;
2021/11/26 13:11:52;;;;;;;17.5;9.2;;;;;;;2.55;86.02539;919.335;;;;
2021/11/26 13:14:17;;;;;;;15.4;8.6;;;;;;;2.63;86.43262;919.3588;;;;
2021/11/26 13:16:46;;;;;;;15.9;9.2;;;;;;;2.42;87.20605;919.3189;;;;
2021/11/26 13:19:18;;;;;;;24.3;13;;;;;;;2.28;87.4248;919.3308;;;;
2021/11/26 13:21:38;;;;;;;19.5;10.6;;;;;;;2.41;87.79785;919.2961;;;;
2021/11/26 13:24:03;;;;;;;17;10.7;;;;;;;2.45;88.28906;919.2791;;;;
2021/11/26 13:26:28;;;;;;;21.1;12.5;;;;;;;2.22;88.82227;919.258;;;;
2021/11/26 13:28:55;;;;;;;16.1;9.7;;;;;;;2.3;88.52734;919.2516;;;;
2021/11/26 13:31:20;;;;;;;18.8;9.5;;;;;;;2.49;87.69141;919.259;;;;
2021/11/26 13:33:45;;;;;;;18.4;10.7;;;;;;;2.2;88.45117;919.2802;;;;
2021/11/26 13:36:12;;;;;;;17.6;9.9;;;;;;;2.25;88.10156;919.2913;;;;
2021/11/26 13:38:38;;;;;;;17.1;10.3;;;;;;;2.27;89.04688;919.2263;;;;
2021/11/26 13:41:02;;;;;;;19.7;9.9;;;;;;;2.01;89.57324;919.2385;;;;
2021/11/26 13:43:27;;;;;;;17.1;9.4;;;;;;;2.35;88.57031;919.2301;;;;
2021/11/26 13:45:56;;;;;;;16;9.1;;;;;;;2.41;88.29102;919.216;;;;
2021/11/26 13:48:25;;;;;;;15.4;9;;;;;;;2.43;87.80371;919.1989;;;;
2021/11/26 13:50:50;;;;;;;14.7;9.2;;;;;;;2.41;88.17871;919.1995;;;;
2021/11/26 13:53:15;;;;;;;16.7;10;;;;;;;2.29;89.18457;919.1989;;;;
2021/11/26 13:55:40;;;;;;;14.9;9.3;;;;;;;2.37;88.36133;919.1753;;;;
2021/11/26 13:58:06;;;;;;;16.5;9.5;;;;;;;2.32;88.45313;919.1372;;;;
2021/11/26 14:00:36;;;;;;;16.7;9.4;;;;;;;2.25;88.70703;919.1836;;;;
2021/11/26 14:03:05;;;;;;;15.6;9.1;;;;;;;2.5;88.18848;919.1547;;;;
2021/11/26 14:05:29;;;;;;;14.6;9.4;;;;;;;2.28;88.36523;919.1777;;;;
2021/11/26 14:07:54;;;;;;;16.9;9.7;;;;;;;2.27;88.28516;919.205;;;;
2021/11/26 14:10:23;;;;;;;16.2;9.6;;;;;;;2.43;87.51172;919.18;;;;
2021/11/26 14:12:48;;;;;;;15.2;8.9;;;;;;;2.52;87.21484;919.1635;;;;
2021/11/26 14:15:14;;;;;;;15.7;9.5;;;;;;;2.5;86.87695;919.1539;;;;
2021/11/26 14:17:39;;;;;;;14;9;;;;;;;2.23;87.22266;919.101;;;;
2021/11/26 14:20:09;;;;;;;15.8;9.7;;;;;;;2.18;87.85156;919.1473;;;;
2021/11/26 14:22:39;;;;;;;19.4;11.4;;;;;;;2.03;88.77148;919.1727;;;;
2021/11/26 14:25:06;;;;;;;27.9;14.8;;;;;;;1.78;89.81445;919.197;;;;
2021/11/26 14:27:29;;;;;;;22.7;13.1;;;;;;;1.78;90.39844;919.2181;;;;
2021/11/26 14:29:54;;;;;;;21.9;12.6;;;;;;;1.94;90.04102;919.1628;;;;
2021/11/26 14:32:26;;;;;;;19.9;12;;;;;;;1.99;89.93945;919.1367;;;;
2021/11/26 14:34:54;;;;;;;21.7;13;;;;;;;2.07;89.39648;919.0639;;;;
2021/11/26 14:37:20;;;;;;;25.6;12.9;;;;;;;1.92;89.82324;919.2285;;;;
2021/11/26 14:39:51;;;;;;;21.4;11.6;;;;;;;1.72;90.49707;919.1383;;;;
2021/11/26 14:42:20;;;;;;;17.9;10.2;;;;;;;1.51;91.12305;919.2658;;;;
2021/11/26 14:44:46;;;;;;;19.1;10.5;;;;;;;1.39;92.41504;919.2216;;;;
2021/11/26 14:47:39;;;;;;;18.9;11;;;;;;;1.54;92.26953;919.3108;;;;
2021/11/26 14:50:06;;;;;;;20.3;11;;;;;;;1.75;91.61035;919.3212;;;;
2021/11/26 14:52:35;;;;;;;19.3;11.4;;;;;;;1.74;91.81152;919.3299;;;;
2021/11/26 14:55:00;;;;;;;18.1;10.2;;;;;;;1.59;91.23047;919.3718;;;;
2021/11/26 14:57:28;;;;;;;18.6;10.1;;;;;;;1.66;92.21875;919.3691;;;;
2021/11/26 14:59:54;;;;;;;18;10.5;;;;;;;1.65;91.92578;919.4222;;;;
2021/11/26 15:02:20;;;;;;;16.1;9.8;;;;;;;1.44;92.35938;919.4265;;;;
2021/11/26 15:04:48;;;;;;;17.2;10;;;;;;;1.47;92.32227;919.4033;;;;
2021/11/26 15:07:13;;;;;;;19.4;10.8;;;;;;;1.58;92.2998;919.4116;;;;
2021/11/26 15:09:41;;;;;;;18.8;11.2;;;;;;;1.57;92.37598;919.3778;;;;
2021/11/26 15:12:06;;;;;;;17.6;10.5;;;;;;;1.68;92.42188;919.4531;;;;
2021/11/26 15:14:36;;;;;;;19;11.4;;;;;;;1.87;92.20801;919.3763;;;;
2021/11/26 15:17:09;;;;;;;18.2;11.9;;;;;;;1.97;91.71484;919.3483;;;;
2021/11/26 15:19:37;;;;;;;22.4;13.6;;;;;;;1.99;91.03613;919.416;;;;
2021/11/26 15:25:35;;;;;;;15.9;9;;;;;;;2.09;90.50879;919.3686;;;;
2021/11/26 15:28:05;;;;;;;14.6;8.9;;;;;;;1.92;90.62891;919.4177;;;;
2021/11/26 15:34:11;;;;;;;16.3;9.8;;;;;;;2.2;90.0166;919.5385;;;;
2021/11/26 15:36:40;;;;;;;17.3;10;;;;;;;2.27;89.74121;919.5481;;;;
2021/11/26 15:39:11;;;;;;;15.2;8.6;;;;;;;2.39;89.30664;919.5313;;;;
2021/11/26 15:41:35;;;;;;;16;9.6;;;;;;;2.41;89.12207;919.443;;;;
2021/11/26 15:44:01;;;;;;;14.4;8.7;;;;;;;2.26;89.22363;919.4547;;;;
2021/11/26 15:46:26;;;;;;;14.7;8.5;;;;;;;2.13;90.13574;919.4531;;;;
2021/11/26 15:48:54;;;;;;;14.9;8.1;;;;;;;2.11;90.2666;919.4536;;;;
2021/11/26 15:51:21;;;;;;;12.5;8.1;;;;;;;2.2;90.03027;919.4106;;;;
2021/11/26 15:56:18;;;;;;;15.5;8.5;;;;;;;1.9;91.60938;919.3524;;;;
2021/11/26 15:58:44;;;;;;;13.3;8.3;;;;;;;1.8;92.16992;919.3614;;;;
2021/11/26 16:01:17;;;;;;;14.4;8.7;;;;;;;1.77;92.35449;919.3789;;;;
2021/11/26 16:03:48;;;;;;;18.5;9.7;;;;;;;1.67;92.7998;919.3989;;;;
2021/11/26 16:06:11;;;;;;;15.5;8.8;;;;;;;1.82;92.95703;919.3114;;;;
2021/11/26 16:08:40;;;;;;;14.7;8.8;;;;;;;1.94;92.01074;919.3167;;;;
2021/11/26 16:11:07;;;;;;;14.1;8.6;;;;;;;1.8;92.10059;919.2936;;;;
2021/11/26 16:13:34;;;;;;;14.7;8.8;;;;;;;1.79;92.30176;919.1775;;;;
2021/11/26 16:16:05;;;;;;;13.4;8;;;;;;;1.78;92.53516;919.2237;;;;
2021/11/26 16:26:26;;;;;;;13.2;8;;;;;;;1.46;93.10352;919.2558;;;;
2021/11/26 16:28:54;;;;;;;12.3;7.6;;;;;;;1.66;93.18066;919.2059;;;;
2021/11/26 16:31:25;;;;;;;12.2;7.3;;;;;;;1.75;92.60547;919.2272;;;;
2021/11/26 16:33:49;;;;;;;10.3;6.3;;;;;;;1.72;92.64453;919.2167;;;;
2021/11/26 16:36:12;;;;;;;10;6.6;;;;;;;1.86;91.82324;919.1996;;;;
2021/11/26 16:38:38;;;;;;;8.9;6.3;;;;;;;1.98;91.49121;919.2111;;;;
2021/11/26 16:41:03;;;;;;;10;6.4;;;;;;;1.99;90.99316;919.1344;;;;
2021/11/26 16:47:08;;;;;;;10.4;5.8;;;;;;;1.85;91.11719;919.1509;;;;
2021/11/26 16:50:01;;;;;;;8.1;6;;;;;;;1.84;91.22852;919.1445;;;;
2021/11/26 16:52:26;;;;;;;8.7;5.4;;;;;;;1.98;90.28418;919.1515;;;;
2021/11/26 16:54:57;;;;;;;7.6;5.3;;;;;;;2.13;89.24023;919.1061;;;;
2021/11/26 16:58:05;;;;;;;7.4;5.3;;;;;;;2.07;88.99316;919.1244;;;;
2021/11/26 17:00:34;;;;;;;7.9;5.4;;;;;;;2.18;89.07227;919.1372;;;;
2021/11/26 17:04:14;;;;;;;8.7;6.1;;;;;;;2.11;88.78809;919.1028;;;;
2021/11/26 17:14:25;;;;;;;8.3;5.7;;;;;;;2.25;88.39355;919.0023;;;;
2021/11/26 17:16:55;;;;;;;8.2;5.4;;;;;;;2.26;88.05762;918.9725;;;;
2021/11/26 17:19:25;;;;;;;10.9;7;;;;;;;2.18;88.17676;918.9739;;;;
2021/11/26 17:21:55;;;;;;;12.2;7.3;;;;;;;1.96;89.18359;918.9755;;;;
2021/11/26 17:24:24;;;;;;;12.1;7.3;;;;;;;2.19;89.33203;918.9755;;;;
2021/11/26 17:26:54;;;;;;;11.2;7.2;;;;;;;2.02;89.28418;919.0061;;;;
2021/11/26 17:29:28;;;;;;;24.9;20.6;;;;;;;1.86;90.80566;918.991;;;;
2021/11/26 17:31:52;;;;;;;17.9;10.2;;;;;;;1.89;91.58496;919.0117;;;;
2021/11/26 17:45:51;;;;;;;17.8;9.1;;;;;;;1.7;93.11914;918.8862;;;;
2021/11/26 17:48:16;;;;;;;14.5;8.8;;;;;;;1.85;92.66113;918.8253;;;;
2021/11/26 17:50:44;;;;;;;20.6;14.5;;;;;;;1.89;92.02148;918.7943;;;;
2021/11/26 17:53:09;;;;;;;16.8;12.3;;;;;;;1.87;91.83887;918.7188;;;;
2021/11/26 17:55:37;;;;;;;16.6;10.6;;;;;;;2.11;91.35254;918.7598;;;;
2021/11/26 17:58:02;;;;;;;15;9.2;;;;;;;2.31;90.46582;918.6463;;;;
2021/11/26 18:00:36;;;;;;;15;9.8;;;;;;;2.5;89.50879;918.6434;;;;
2021/11/26 18:02:57;;;;;;;16.2;9.4;;;;;;;2.6;88.89063;918.5443;;;;
2021/11/26 18:05:28;;;;;;;17.5;9.8;;;;;;;2.47;89.2002;918.5858;;;;
2021/11/26 18:07:52;;;;;;;16.3;10.2;;;;;;;2.38;90.22266;918.5801;;;;
2021/11/26 18:10:23;;;;;;;24.3;13.3;;;;;;;2.37;90.73633;918.5746;;;;
2021/11/26 18:12:58;;;;;;;23.3;11.7;;;;;;;2.26;90.82324;918.5698;;;;
2021/11/26 18:15:19;;;;;;;20.3;11.4;;;;;;;2.29;90.83105;918.5292;;;;
2021/11/26 18:17:43;;;;;;;19.7;10.6;;;;;;;2.37;90.3877;918.5652;;;;
2021/11/26 18:20:15;;;;;;;19.9;10.7;;;;;;;2.47;90.1416;918.5097;;;;
2021/11/26 18:22:40;;;;;;;19.3;11.2;;;;;;;2.58;89.81934;918.4656;;;;
2021/11/26 18:25:13;;;;;;;21.5;11.5;;;;;;;2.68;89.00879;918.4045;;;;
2021/11/26 18:27:41;;;;;;;15.3;8.8;;;;;;;2.53;89.19141;918.3985;;;;
2021/11/26 18:30:06;;;;;;;12.5;8.4;;;;;;;2.52;89.15527;918.3828;;;;
2021/11/26 18:32:32;;;;;;;18.7;10.5;;;;;;;2.52;89.03027;918.3583;;;;
2021/11/26 18:34:57;;;;;;;17.3;10.4;;;;;;;2.49;89.04688;918.2271;;;;
2021/11/26 18:37:24;;;;;;;17.5;11.8;;;;;;;2.6;88.77832;918.2128;;;;
2021/11/26 18:39:50;;;;;;;17;11.2;;;;;;;2.68;88.51758;918.1838;;;;
2021/11/26 18:42:24;;;;;;;16.9;10.6;;;;;;;2.68;88.38086;918.1075;;;;
2021/11/26 18:45:15;;;;;;;16.1;10;;;;;;;2.72;88.15332;918.1792;;;;